Time;durP1;ratioP1;P1;durP2;ratioP2;P2;SDS_P1;SDS_P2;PMS_P1;PMS_P2;Temp;Humidity;BMP_temperature;BMP_pressure;BME280_temperature;BME280_humidity;BME280_pressure;Samples;Min_cycle;Max_cycle;Signal;HPM_P1;HPM_P2
2023/09/15 00:01:49;;;;;;;1317.47;519.13;;;11.10;99.90;;;;;;5098748;28;20043;-85
2023/09/15 00:04:15;;;;;;;1313.00;515.90;;;11.10;99.90;;;;;;5098235;28;20096;-84
2023/09/15 00:06:42;;;;;;;1319.80;517.30;;;11.10;99.90;;;;;;5063856;28;20484;-86
2023/09/15 00:09:14;;;;;;;1250.43;427.20;;;11.00;99.90;;;;;;5079962;28;20197;-86
2023/09/15 00:11:40;;;;;;;1254.50;426.50;;;11.10;99.90;;;;;;5063273;28;20036;-84
2023/09/15 00:14:10;;;;;;;1329.27;514.63;;;11.00;99.90;;;;;;5064286;28;20086;-85
2023/09/15 00:16:40;;;;;;;1268.93;425.60;;;11.00;99.90;;;;;;5099164;28;20036;-85
2023/09/15 00:19:08;;;;;;;1265.27;424.13;;;10.90;99.90;;;;;;5081595;28;20140;-85
2023/09/15 00:21:33;;;;;;;1333.27;513.93;;;10.90;99.90;;;;;;5082038;28;20040;-85
2023/09/15 00:24:01;;;;;;;1329.70;515.73;;;11.00;99.90;;;;;;5065087;28;20047;-86
2023/09/15 00:26:29;;;;;;;1250.77;420.23;;;10.90;99.90;;;;;;5066023;28;20127;-84
2023/09/15 00:28:56;;;;;;;1258.53;430.97;;;10.90;99.90;;;;;;5082407;28;20044;-85
2023/09/15 00:31:23;;;;;;;1345.97;519.83;;;10.90;99.90;;;;;;5081989;28;20118;-86
2023/09/15 00:33:49;;;;;;;1321.87;514.30;;;10.90;99.90;;;;;;5072634;28;20401;-84
2023/09/15 00:36:15;;;;;;;1246.40;428.43;;;10.90;99.90;;;;;;5099227;28;20407;-85
2023/09/15 00:38:41;;;;;;;1251.13;421.70;;;10.90;99.90;;;;;;5080356;28;20066;-86
2023/09/15 00:41:07;;;;;;;1325.40;519.10;;;10.80;99.90;;;;;;5079655;28;20040;-85
2023/09/15 00:43:33;;;;;;;1234.50;422.60;;;10.80;99.90;;;;;;5080062;28;20043;-86
2023/09/15 00:46:02;;;;;;;1320.90;516.47;;;10.80;99.90;;;;;;5079555;28;20048;-86
2023/09/15 00:48:28;;;;;;;1313.73;519.67;;;10.70;99.90;;;;;;5097252;28;20050;-85
2023/09/15 00:50:55;;;;;;;1232.13;427.53;;;10.70;99.90;;;;;;5098100;28;20618;-87
2023/09/15 00:53:21;;;;;;;1293.20;518.53;;;11.00;99.90;;;;;;5079698;28;20044;-85
2023/09/15 00:55:48;;;;;;;1296.67;522.37;;;10.70;99.90;;;;;;5079942;28;20051;-85
2023/09/15 00:58:16;;;;;;;1279.33;519.87;;;10.70;99.90;;;;;;5082075;28;20109;-86
2023/09/15 01:00:43;;;;;;;1296.97;515.80;;;10.60;99.90;;;;;;5067564;28;20458;-86
2023/09/15 01:03:13;;;;;;;1216.73;418.70;;;10.70;99.90;;;;;;5102982;28;20040;-85
2023/09/15 01:05:41;;;;;;;1203.17;422.00;;;10.60;99.90;;;;;;5084126;28;20093;-85
2023/09/15 01:08:07;;;;;;;1182.70;415.27;;;10.60;99.90;;;;;;5083254;28;20044;-85
2023/09/15 01:10:40;;;;;;;1178.53;418.37;;;10.60;99.90;;;;;;5064880;28;20043;-85
2023/09/15 01:13:06;;;;;;;1245.50;514.73;;;10.50;99.90;;;;;;5083279;28;20044;-85
2023/09/15 01:15:43;;;;;;;1166.53;415.70;;;10.50;99.90;;;;;;5080603;28;20137;-85
2023/09/15 01:18:40;;;;;;;1235.97;515.30;;;10.60;99.90;;;;;;5099370;28;20408;-86
2023/09/15 01:21:34;;;;;;;1245.83;515.23;;;10.50;99.90;;;;;;5082295;28;20051;-86
2023/09/15 01:24:22;;;;;;;1179.97;413.00;;;10.50;99.90;;;;;;5068946;28;20396;-85
2023/09/15 01:27:06;;;;;;;1175.77;418.00;;;10.50;99.90;;;;;;5075359;28;20053;-86
2023/09/15 01:29:39;;;;;;;1182.70;415.33;;;10.20;99.90;;;;;;5080280;28;20040;-86
2023/09/15 01:32:12;;;;;;;1247.27;517.43;;;10.40;99.90;;;;;;5063234;28;20044;-85
2023/09/15 01:34:45;;;;;;;1228.57;514.37;;;10.30;99.90;;;;;;5065164;28;20511;-85
2023/09/15 01:37:11;;;;;;;1170.33;421.13;;;10.40;99.90;;;;;;5082028;28;20084;-85
2023/09/15 01:39:36;;;;;;;1162.40;415.03;;;10.40;99.90;;;;;;5098299;28;20059;-85
2023/09/15 01:42:02;;;;;;;1239.83;517.93;;;10.40;99.90;;;;;;5083135;28;20186;-86
2023/09/15 01:44:28;;;;;;;1151.30;410.07;;;10.40;99.90;;;;;;5067936;28;20044;-85
2023/09/15 01:46:56;;;;;;;1159.50;512.17;;;10.30;99.90;;;;;;5104087;28;20044;-85
2023/09/15 01:49:24;;;;;;;1074.17;405.20;;;10.40;99.90;;;;;;5106027;28;20060;-85
2023/09/15 01:51:53;;;;;;;1064.33;400.03;;;10.30;99.90;;;;;;5103916;28;20290;-85
2023/09/15 01:54:19;;;;;;;1088.50;509.17;;;10.50;99.90;;;;;;5083542;28;20132;-85
2023/09/15 01:56:45;;;;;;;1120.30;509.77;;;10.30;99.90;;;;;;5066286;28;20036;-85
2023/09/15 01:59:14;;;;;;;1075.50;399.30;;;10.30;99.90;;;;;;5083678;28;20302;-85
2023/09/15 02:01:40;;;;;;;1064.20;511.70;;;10.70;99.90;;;;;;5066436;28;20472;-85
2023/09/15 02:07:47;;;;;;;965.80;400.90;;;10.20;99.90;;;;;;5100145;28;20073;-84
2023/09/15 02:10:13;;;;;;;977.43;505.60;;;10.20;99.90;;;;;;5082915;28;20372;-84
2023/09/15 02:12:38;;;;;;;957.23;398.17;;;10.20;99.90;;;;;;5082695;28;20051;-84
2023/09/15 02:15:04;;;;;;;980.40;503.20;;;10.20;99.90;;;;;;5083566;28;20130;-85
2023/09/15 02:17:31;;;;;;;955.60;501.73;;;10.20;99.90;;;;;;5066595;28;20067;-84
2023/09/15 02:23:37;;;;;;;996.87;503.57;;;10.10;99.90;;;;;;5103434;28;20273;-86
2023/09/15 02:26:04;;;;;;;1029.63;507.07;;;10.10;99.90;;;;;;5085220;28;20340;-84
2023/09/15 02:28:31;;;;;;;1004.70;401.10;;;10.00;99.90;;;;;;5085302;28;20036;-85
2023/09/15 02:30:57;;;;;;;996.13;400.70;;;10.00;99.90;;;;;;5085924;28;20059;-85
2023/09/15 02:33:25;;;;;;;967.97;400.97;;;10.00;99.90;;;;;;5084788;28;20361;-85
2023/09/15 02:35:51;;;;;;;973.50;397.90;;;10.30;99.90;;;;;;5070360;28;20072;-85
2023/09/15 02:38:17;;;;;;;991.97;398.90;;;9.90;99.90;;;;;;5104455;28;20059;-85
2023/09/15 02:40:43;;;;;;;1041.63;505.97;;;9.90;99.90;;;;;;5102786;28;20040;-85
2023/09/15 02:43:09;;;;;;;1034.47;504.80;;;9.80;99.90;;;;;;5087295;28;20492;-85
2023/09/15 02:45:35;;;;;;;1036.53;507.57;;;9.80;99.90;;;;;;5086987;28;20086;-85
2023/09/15 02:48:03;;;;;;;994.23;394.53;;;9.80;99.90;;;;;;5086233;28;20044;-85
2023/09/15 02:57:54;;;;;;;983.23;394.10;;;9.70;99.90;;;;;;5104003;28;20815;-85
2023/09/15 03:00:20;;;;;;;978.83;502.27;;;9.70;99.90;;;;;;5104164;28;20294;-84
2023/09/15 03:02:47;;;;;;;979.73;503.40;;;9.80;99.90;;;;;;5086859;28;20131;-84
2023/09/15 03:05:13;;;;;;;959.60;498.30;;;10.30;99.90;;;;;;5105762;28;20081;-85
2023/09/15 03:07:39;;;;;;;945.03;496.63;;;10.20;99.90;;;;;;5107107;28;20043;-85
2023/09/15 03:10:09;;;;;;;939.60;491.83;;;9.60;99.90;;;;;;5089706;28;20366;-85
2023/09/15 03:12:36;;;;;;;962.63;499.60;;;9.60;99.90;;;;;;5109217;28;20692;-84
2023/09/15 03:15:06;;;;;;;954.83;395.00;;;10.20;99.90;;;;;;5091120;28;20350;-85
2023/09/15 03:17:33;;;;;;;944.50;397.80;;;9.60;99.90;;;;;;5076454;28;20282;-84
2023/09/15 03:19:59;;;;;;;943.03;395.77;;;10.30;99.90;;;;;;5092555;28;20357;-84
2023/09/15 03:22:27;;;;;;;933.03;394.23;;;9.50;99.90;;;;;;5089644;28;20322;-84
2023/09/15 03:24:56;;;;;;;935.83;496.73;;;9.60;99.90;;;;;;5070816;28;20331;-85
2023/09/15 03:27:22;;;;;;;929.77;394.77;;;9.60;99.90;;;;;;5091236;28;20302;-85
2023/09/15 03:29:47;;;;;;;923.63;496.47;;;9.50;99.90;;;;;;5089462;28;20298;-85
2023/09/15 03:32:13;;;;;;;917.73;390.63;;;9.50;99.90;;;;;;5070490;28;20036;-83
2023/09/15 03:34:39;;;;;;;929.53;499.83;;;9.50;99.90;;;;;;5071578;28;20392;-85
2023/09/15 03:37:05;;;;;;;919.13;388.63;;;9.50;99.90;;;;;;5088288;28;20078;-86
2023/09/15 03:39:30;;;;;;;871.23;475.43;;;9.40;99.90;;;;;;5106307;28;20052;-84
2023/09/15 03:41:56;;;;;;;889.00;489.20;;;9.80;99.90;;;;;;5104286;28;20855;-85
2023/09/15 03:44:25;;;;;;;898.93;388.90;;;9.90;99.90;;;;;;5085821;28;20036;-85
2023/09/15 03:46:51;;;;;;;893.50;489.53;;;10.10;99.90;;;;;;5087994;28;20036;-84
2023/09/15 03:49:18;;;;;;;893.20;386.43;;;9.40;99.90;;;;;;5087859;28;20371;-84
2023/09/15 03:51:44;;;;;;;878.93;486.73;;;9.30;99.90;;;;;;5068857;28;20070;-85
2023/09/15 03:54:13;;;;;;;846.20;373.83;;;9.30;99.90;;;;;;5084130;28;20297;-85
2023/09/15 03:56:39;;;;;;;802.23;461.40;;;9.70;99.90;;;;;;5082493;28;20286;-84
2023/09/15 03:59:04;;;;;;;833.80;442.17;;;9.50;99.90;;;;;;5097141;28;20143;-85
2023/09/15 04:01:31;;;;;;;845.83;365.70;;;9.30;99.90;;;;;;5081453;28;20047;-85
2023/09/15 04:03:56;;;;;;;817.77;447.47;;;9.20;99.90;;;;;;5081980;28;20048;-85
2023/09/15 04:06:22;;;;;;;836.00;349.23;;;9.20;99.90;;;;;;5063798;28;20297;-86
2023/09/15 04:08:48;;;;;;;893.17;320.60;;;9.10;99.90;;;;;;5078682;28;20047;-84
2023/09/15 04:11:14;;;;;;;852.80;318.87;;;9.20;99.90;;;;;;5094150;28;20040;-85
2023/09/15 04:13:40;;;;;;;858.63;335.63;;;9.10;99.90;;;;;;5093408;28;20086;-85
2023/09/15 04:16:08;;;;;;;822.60;353.17;;;9.10;99.90;;;;;;5073936;28;20052;-85
2023/09/15 04:18:34;;;;;;;823.50;347.97;;;9.10;99.90;;;;;;5074444;28;20044;-85
2023/09/15 04:21:00;;;;;;;810.57;454.93;;;9.10;99.90;;;;;;5072907;28;20620;-86
2023/09/15 04:23:28;;;;;;;825.90;365.00;;;9.10;99.90;;;;;;5039566;28;20044;-85
2023/09/15 04:25:54;;;;;;;837.50;378.30;;;9.10;99.90;;;;;;5074436;28;20040;-85
2023/09/15 04:28:19;;;;;;;839.60;374.37;;;9.00;99.90;;;;;;5057878;28;20309;-85
2023/09/15 04:30:45;;;;;;;820.23;467.90;;;9.00;99.90;;;;;;5074726;28;20138;-85
2023/09/15 04:33:12;;;;;;;824.17;362.00;;;9.00;99.90;;;;;;5074693;28;20392;-84
2023/09/15 04:35:38;;;;;;;802.80;469.73;;;9.00;99.90;;;;;;5093935;28;20104;-84
2023/09/15 04:38:04;;;;;;;811.20;466.00;;;9.00;99.90;;;;;;5078367;28;20302;-86
2023/09/15 04:40:31;;;;;;;906.30;303.87;;;9.00;99.90;;;;;;5078458;28;20048;-85
2023/09/15 04:42:59;;;;;;;843.87;263.23;;;9.00;99.90;;;;;;5096462;28;20759;-85
2023/09/15 04:45:25;;;;;;;855.67;267.33;;;8.90;99.90;;;;;;5096367;28;20281;-85
2023/09/15 04:47:51;;;;;;;894.57;295.47;;;8.90;99.90;;;;;;5077331;28;20315;-84
2023/09/15 04:50:20;;;;;;;794.50;232.23;;;8.90;99.90;;;;;;5078156;28;20335;-85
2023/09/15 04:52:49;;;;;;;812.13;246.40;;;8.90;99.90;;;;;;5077958;28;20032;-85
2023/09/15 04:55:14;;;;;;;869.67;289.97;;;8.90;99.90;;;;;;5077849;28;20290;-84
2023/09/15 04:57:40;;;;;;;862.17;285.83;;;8.90;99.90;;;;;;5060631;28;20294;-85
2023/09/15 05:00:12;;;;;;;892.63;304.53;;;8.80;99.90;;;;;;5077985;28;20036;-84
2023/09/15 05:02:42;;;;;;;889.03;299.23;;;8.80;99.90;;;;;;5060618;28;20035;-86
2023/09/15 05:05:08;;;;;;;905.63;312.47;;;8.80;99.90;;;;;;5060907;28;20848;-85
2023/09/15 05:07:34;;;;;;;916.40;319.60;;;8.90;99.90;;;;;;5096508;28;20313;-85
2023/09/15 05:10:00;;;;;;;909.13;314.87;;;8.90;99.90;;;;;;5077727;28;20278;-85
2023/09/15 05:12:26;;;;;;;906.30;312.90;;;8.90;99.90;;;;;;5061090;28;20047;-86
2023/09/15 05:14:54;;;;;;;883.30;298.87;;;9.50;99.90;;;;;;5077705;28;20638;-86
2023/09/15 05:17:22;;;;;;;886.87;302.17;;;8.90;99.90;;;;;;5060771;28;20086;-86
2023/09/15 05:19:49;;;;;;;904.60;311.20;;;8.90;99.90;;;;;;5060042;28;20306;-87
2023/09/15 05:22:17;;;;;;;895.40;305.13;;;8.90;99.90;;;;;;5077542;28;20286;-85
2023/09/15 05:24:43;;;;;;;902.60;313.80;;;9.10;99.90;;;;;;5095109;28;20326;-85
2023/09/15 05:27:08;;;;;;;904.03;311.47;;;9.40;99.90;;;;;;5077320;28;20298;-85
2023/09/15 05:29:35;;;;;;;889.93;304.67;;;8.90;99.90;;;;;;5076482;28;20058;-86
2023/09/15 05:32:01;;;;;;;868.43;288.97;;;8.90;99.90;;;;;;5077503;28;20040;-86
2023/09/15 05:42:12;;;;;;;817.87;252.00;;;8.90;99.90;;;;;;5071598;28;20407;-89
2023/09/15 05:44:38;;;;;;;824.73;260.60;;;8.90;99.90;;;;;;5058788;28;20297;-88
2023/09/15 05:47:04;;;;;;;810.13;244.03;;;9.30;99.90;;;;;;5073968;28;20044;-87
2023/09/15 05:49:30;;;;;;;814.93;251.53;;;9.10;99.90;;;;;;5073343;28;20041;-87
2023/09/15 05:51:56;;;;;;;786.63;231.10;;;9.10;99.90;;;;;;5073131;28;20408;-88
2023/09/15 05:54:23;;;;;;;777.60;224.63;;;9.10;99.90;;;;;;5057355;28;20458;-86
2023/09/15 05:56:49;;;;;;;776.97;223.77;;;9.20;99.90;;;;;;5073407;28;20037;-88
2023/09/15 05:59:15;;;;;;;755.93;216.17;;;9.20;99.90;;;;;;5072419;28;20291;-88
2023/09/15 06:01:46;;;;;;;750.90;213.77;;;9.30;99.90;;;;;;5073009;28;20067;-85
2023/09/15 06:04:14;;;;;;;750.87;214.67;;;9.30;99.90;;;;;;5074136;28;20299;-85
2023/09/15 06:06:40;;;;;;;744.47;210.83;;;9.40;99.90;;;;;;5052539;28;20377;-86
2023/09/15 06:09:06;;;;;;;737.87;208.13;;;9.50;99.90;;;;;;5074076;28;20410;-87
2023/09/15 06:11:40;;;;;;;771.10;219.23;;;9.50;99.90;;;;;;5056320;28;20037;-86
2023/09/15 06:14:09;;;;;;;751.80;213.57;;;9.60;99.90;;;;;;5058962;28;20036;-85
2023/09/15 06:16:36;;;;;;;736.20;209.43;;;9.70;99.90;;;;;;5072271;28;20286;-87
2023/09/15 06:19:02;;;;;;;726.07;207.97;;;9.70;99.90;;;;;;5073424;28;20048;-87
2023/09/15 06:21:29;;;;;;;718.47;205.83;;;9.90;99.90;;;;;;5072859;28;20411;-86
2023/09/15 06:23:55;;;;;;;722.27;206.37;;;9.90;99.90;;;;;;5073077;28;20306;-84
2023/09/15 06:26:21;;;;;;;722.43;205.90;;;10.00;99.90;;;;;;5073340;28;20279;-87
2023/09/15 06:28:47;;;;;;;711.63;207.03;;;10.10;99.90;;;;;;5072707;28;20386;-87
2023/09/15 06:31:13;;;;;;;727.63;211.93;;;10.20;99.90;;;;;;5072251;28;20298;-84
2023/09/15 06:33:39;;;;;;;711.03;206.50;;;10.30;99.90;;;;;;5055783;28;20052;-86
2023/09/15 06:36:05;;;;;;;699.97;204.90;;;10.40;99.90;;;;;;5073733;28;20047;-88
2023/09/15 06:38:33;;;;;;;695.73;205.60;;;10.60;99.90;;;;;;5056403;28;20502;-86
2023/09/15 06:40:59;;;;;;;695.70;205.23;;;10.70;99.90;;;;;;5073430;28;20306;-86
2023/09/15 06:43:25;;;;;;;697.37;204.97;;;10.90;99.90;;;;;;5083470;28;20310;-84
2023/09/15 06:45:51;;;;;;;737.67;211.17;;;10.90;99.90;;;;;;5075951;28;20054;-85
2023/09/15 06:48:21;;;;;;;762.67;216.90;;;11.10;99.90;;;;;;5059341;28;20127;-85
2023/09/15 06:50:47;;;;;;;756.60;216.10;;;11.20;99.90;;;;;;5094061;28;20044;-84
2023/09/15 06:53:13;;;;;;;752.30;215.43;;;11.40;99.90;;;;;;5074795;28;20313;-85
2023/09/15 06:55:39;;;;;;;776.70;223.20;;;11.60;99.90;;;;;;5094150;28;20044;-89
2023/09/15 06:58:07;;;;;;;771.97;221.07;;;11.60;99.90;;;;;;5059223;28;20390;-85
2023/09/15 07:00:33;;;;;;;763.47;216.77;;;11.70;99.90;;;;;;5059052;28;20412;-84
2023/09/15 07:02:59;;;;;;;774.57;219.43;;;11.80;99.90;;;;;;5075592;28;20278;-85
2023/09/15 07:05:25;;;;;;;799.63;230.40;;;12.00;99.90;;;;;;5058948;28;20055;-88
2023/09/15 07:07:50;;;;;;;800.57;229.23;;;12.10;99.90;;;;;;5076173;28;20047;-87
2023/09/15 07:10:16;;;;;;;806.03;232.37;;;12.20;99.90;;;;;;5059584;28;20133;-87
2023/09/15 07:12:42;;;;;;;800.37;227.00;;;12.30;99.90;;;;;;5077221;28;20075;-84
2023/09/15 07:15:08;;;;;;;784.27;221.87;;;12.50;99.90;;;;;;5060354;28;20083;-86
2023/09/15 07:17:34;;;;;;;771.63;220.33;;;12.50;99.90;;;;;;5094408;28;20514;-84
2023/09/15 07:20:00;;;;;;;783.27;222.43;;;12.70;99.90;;;;;;5059069;28;20293;-84
2023/09/15 07:22:27;;;;;;;795.47;225.30;;;12.90;99.90;;;;;;5093630;28;20052;-87
2023/09/15 07:24:56;;;;;;;782.37;222.30;;;13.00;99.90;;;;;;5092820;28;20036;-82
2023/09/15 07:27:23;;;;;;;788.60;225.40;;;13.10;99.90;;;;;;5093600;28;20333;-83
2023/09/15 07:29:50;;;;;;;814.30;236.13;;;13.20;99.90;;;;;;5058421;28;20298;-86
2023/09/15 07:32:18;;;;;;;827.07;241.37;;;13.30;99.90;;;;;;5093339;28;20386;-86
2023/09/15 07:34:44;;;;;;;882.30;282.87;;;13.40;99.90;;;;;;5092788;28;20359;-85
2023/09/15 07:37:13;;;;;;;859.20;262.77;;;13.60;99.90;;;;;;5093521;28;20278;-86
2023/09/15 07:39:38;;;;;;;911.57;308.47;;;13.70;99.90;;;;;;5075285;28;20286;-86
2023/09/15 07:42:08;;;;;;;918.90;310.53;;;13.80;99.90;;;;;;5092556;28;20317;-85
2023/09/15 07:44:35;;;;;;;937.83;322.80;;;13.90;99.90;;;;;;5058088;28;20108;-87
2023/09/15 07:47:03;;;;;;;950.53;333.37;;;14.10;99.90;;;;;;5074034;28;20631;-83
2023/09/15 07:49:29;;;;;;;961.13;335.63;;;14.20;99.90;;;;;;5068791;28;20782;-86
2023/09/15 07:51:55;;;;;;;969.80;341.60;;;14.30;99.90;;;;;;5074528;28;20294;-85
2023/09/15 07:54:21;;;;;;;906.10;355.00;;;14.40;99.90;;;;;;5074034;28;20036;-85
2023/09/15 07:56:46;;;;;;;884.00;380.80;;;14.60;99.90;;;;;;5092812;28;20059;-85
2023/09/15 07:59:13;;;;;;;869.20;479.63;;;14.70;99.90;;;;;;5088756;28;20072;-83
2023/09/15 08:01:39;;;;;;;861.47;468.07;;;14.80;99.90;;;;;;5091755;28;20450;-83
2023/09/15 08:04:05;;;;;;;881.73;369.63;;;14.90;99.90;;;;;;5091812;28;20040;-85
2023/09/15 08:06:31;;;;;;;876.60;449.40;;;15.10;99.90;;;;;;5057783;28;20083;-84
2023/09/15 08:08:57;;;;;;;892.77;494.30;;;15.20;99.90;;;;;;5090625;28;20488;-85
2023/09/15 08:11:23;;;;;;;883.33;507.23;;;15.40;99.90;;;;;;5060195;28;20050;-85
2023/09/15 08:13:49;;;;;;;894.87;516.50;;;15.50;99.90;;;;;;5096586;28;20054;-85
2023/09/15 08:16:14;;;;;;;918.83;437.90;;;15.70;99.90;;;;;;5061288;28;20116;-84
2023/09/15 08:18:43;;;;;;;917.80;509.97;;;15.90;99.90;;;;;;5095964;28;20043;-83
2023/09/15 08:21:15;;;;;;;893.03;506.47;;;16.00;99.90;;;;;;5095490;28;20048;-86
2023/09/15 08:23:43;;;;;;;900.40;513.13;;;16.20;99.90;;;;;;5096527;28;20078;-86
2023/09/15 08:26:10;;;;;;;913.13;424.20;;;16.30;99.90;;;;;;5077605;28;20052;-86
2023/09/15 08:28:35;;;;;;;900.63;402.93;;;16.40;99.90;;;;;;5078391;28;20044;-84
2023/09/15 08:31:01;;;;;;;912.73;396.73;;;16.60;99.90;;;;;;5061229;28;20071;-86
2023/09/15 08:33:27;;;;;;;881.77;435.67;;;16.70;99.90;;;;;;5095251;28;20333;-85
2023/09/15 08:35:58;;;;;;;897.80;409.43;;;16.80;99.90;;;;;;5083686;28;20046;-85
2023/09/15 08:38:25;;;;;;;892.27;506.97;;;17.00;99.90;;;;;;5093832;28;20040;-86
2023/09/15 08:41:05;;;;;;;900.53;519.20;;;17.00;99.90;;;;;;5094566;28;20433;-86
2023/09/15 08:43:32;;;;;;;926.07;463.07;;;17.20;99.90;;;;;;5077157;28;20040;-87
2023/09/15 08:46:00;;;;;;;900.20;511.43;;;17.30;99.90;;;;;;5095624;28;20056;-86
2023/09/15 08:48:32;;;;;;;922.47;461.70;;;17.40;99.90;;;;;;5077250;28;20232;-85
2023/09/15 08:50:59;;;;;;;924.43;465.87;;;17.50;99.90;;;;;;5094780;28;20050;-85
2023/09/15 08:53:25;;;;;;;926.47;471.37;;;17.60;99.90;;;;;;5088463;28;20051;-86
2023/09/15 08:55:51;;;;;;;944.00;482.13;;;17.70;99.90;;;;;;5060923;28;20047;-85
2023/09/15 08:58:18;;;;;;;930.37;476.13;;;17.90;99.90;;;;;;5094422;28;20055;-84
2023/09/15 09:00:46;;;;;;;951.73;489.87;;;18.00;99.90;;;;;;5073018;28;20552;-87
2023/09/15 09:03:14;;;;;;;941.70;538.07;;;18.10;99.90;;;;;;5092078;28;20465;-85
2023/09/15 09:05:46;;;;;;;944.27;536.27;;;18.30;99.90;;;;;;5077386;28;20127;-85
2023/09/15 09:08:12;;;;;;;969.67;505.43;;;18.30;99.90;;;;;;5077321;28;20044;-86
2023/09/15 09:10:39;;;;;;;973.57;511.90;;;18.40;99.90;;;;;;5093129;28;20392;-84
2023/09/15 09:13:05;;;;;;;954.67;543.03;;;18.60;99.90;;;;;;5093817;28;20039;-85
2023/09/15 09:15:33;;;;;;;969.03;547.20;;;18.60;99.90;;;;;;5085358;28;20052;-84
2023/09/15 09:17:58;;;;;;;993.47;520.20;;;18.80;99.90;;;;;;5040729;28;20485;-84
2023/09/15 09:20:28;;;;;;;992.20;521.47;;;19.00;99.90;;;;;;5056228;28;20082;-82
2023/09/15 09:22:54;;;;;;;997.23;530.87;;;19.00;99.90;;;;;;5058425;28;20389;-86
2023/09/15 09:25:28;;;;;;;971.10;499.50;;;19.20;99.90;;;;;;5077161;28;20506;-84
2023/09/15 09:27:55;;;;;;;973.10;551.03;;;19.20;99.90;;;;;;5095134;28;20039;-83
2023/09/15 09:30:29;;;;;;;963.77;542.07;;;19.40;99.90;;;;;;5094752;28;20087;-84
2023/09/15 09:33:00;;;;;;;981.20;499.90;;;19.60;99.90;;;;;;5076222;28;20079;-83
2023/09/15 09:35:29;;;;;;;995.70;524.00;;;19.70;99.90;;;;;;5076450;28;20543;-85
2023/09/15 09:37:58;;;;;;;999.93;547.53;;;19.80;99.90;;;;;;5076660;28;20040;-83
2023/09/15 09:40:25;;;;;;;987.27;570.30;;;19.90;99.90;;;;;;5076532;28;20095;-83
2023/09/15 09:42:52;;;;;;;992.33;564.77;;;19.90;99.90;;;;;;5093557;28;20048;-85
2023/09/15 09:45:24;;;;;;;995.70;536.73;;;19.90;99.90;;;;;;5094821;28;20043;-84
2023/09/15 09:47:50;;;;;;;987.90;570.97;;;20.00;99.90;;;;;;5094470;28;20507;-83
2023/09/15 09:50:16;;;;;;;942.03;537.07;;;20.10;99.90;;;;;;5093786;28;20694;-84
2023/09/15 09:52:42;;;;;;;971.47;498.03;;;20.20;99.90;;;;;;5094329;28;20044;-83
2023/09/15 09:55:09;;;;;;;961.83;495.73;;;20.30;99.90;;;;;;5093773;28;20074;-82
2023/09/15 09:57:38;;;;;;;908.07;383.60;;;20.40;99.90;;;;;;5092267;28;20040;-82
2023/09/15 10:00:09;;;;;;;873.17;241.40;;;20.50;99.90;;;;;;5094267;28;20479;-81
2023/09/15 10:02:40;;;;;;;868.00;238.83;;;20.60;99.90;;;;;;5094243;28;20071;-83
2023/09/15 10:05:06;;;;;;;885.00;247.77;;;20.80;99.90;;;;;;5094074;28;20079;-81
2023/09/15 10:07:32;;;;;;;827.13;233.70;;;20.80;99.90;;;;;;5093171;28;20078;-82
2023/09/15 10:09:59;;;;;;;728.27;226.63;;;20.90;99.90;;;;;;5089769;28;20055;-84
2023/09/15 10:12:25;;;;;;;755.80;226.23;;;21.10;99.90;;;;;;5093835;28;20071;-85
2023/09/15 10:14:52;;;;;;;851.33;238.50;;;21.20;99.90;;;;;;5058889;28;20048;-81
2023/09/15 10:17:21;;;;;;;871.10;241.20;;;21.40;99.90;;;;;;5094359;28;20032;-83
2023/09/15 10:19:53;;;;;;;895.27;249.33;;;21.40;99.90;;;;;;5076454;28;20071;-86
2023/09/15 10:22:20;;;;;;;904.03;250.47;;;21.60;99.90;;;;;;5075898;28;20048;-82
2023/09/15 10:24:55;;;;;;;901.57;357.93;;;21.50;99.90;;;;;;5058345;28;20059;-83
2023/09/15 10:27:21;;;;;;;902.00;376.77;;;21.50;99.90;;;;;;5092588;28;20044;-83
2023/09/15 10:29:47;;;;;;;888.60;498.60;;;21.60;99.90;;;;;;5076459;28;20048;-86
2023/09/15 10:32:17;;;;;;;911.80;534.67;;;21.60;99.90;;;;;;5058403;28;20134;-87
2023/09/15 10:34:44;;;;;;;971.67;530.07;;;21.50;99.90;;;;;;5093536;28;20431;-87
2023/09/15 10:37:10;;;;;;;957.50;516.73;;;21.70;99.90;;;;;;5093554;28;20044;-85
2023/09/15 10:39:44;;;;;;;964.63;521.53;;;21.80;99.90;;;;;;5075325;28;20142;-86
2023/09/15 10:42:13;;;;;;;972.63;515.73;;;21.90;99.90;;;;;;5093956;28;20044;-85
2023/09/15 10:44:42;;;;;;;953.63;496.53;;;22.00;99.90;;;;;;5055293;28;20095;-83
2023/09/15 10:47:18;;;;;;;931.87;416.03;;;22.00;99.90;;;;;;5072296;28;20055;-86
2023/09/15 10:49:52;;;;;;;954.23;481.37;;;22.10;99.90;;;;;;5072056;28;20097;-84
2023/09/15 10:52:30;;;;;;;956.40;484.30;;;22.20;99.90;;;;;;5071471;28;20040;-85
2023/09/15 10:54:56;;;;;;;974.50;535.03;;;22.30;99.90;;;;;;5055480;28;20208;-87
2023/09/15 10:57:22;;;;;;;950.23;566.07;;;22.50;99.90;;;;;;5059106;28;20486;-85
2023/09/15 10:59:54;;;;;;;946.23;568.30;;;22.60;99.90;;;;;;5060013;28;20044;-85
2023/09/15 11:02:21;;;;;;;984.73;558.63;;;22.70;99.90;;;;;;5072996;28;20044;-85
2023/09/15 11:04:47;;;;;;;979.97;553.07;;;22.80;99.90;;;;;;5071871;28;20048;-84
2023/09/15 11:07:14;;;;;;;936.27;538.70;;;22.80;99.90;;;;;;5072610;28;20485;-87
2023/09/15 11:09:43;;;;;;;940.97;547.07;;;22.90;99.90;;;;;;5073587;28;20055;-85
2023/09/15 11:12:12;;;;;;;958.47;502.00;;;22.90;99.00;;;;;;5072709;28;20044;-83
2023/09/15 11:14:38;;;;;;;938.27;547.07;;;22.80;99.90;;;;;;5072937;28;20072;-82
2023/09/15 11:17:18;;;;;;;978.30;553.93;;;22.80;98.50;;;;;;5071362;28;20127;-88
2023/09/15 11:19:44;;;;;;;987.13;573.00;;;22.70;99.90;;;;;;5054664;28;20032;-83
2023/09/15 11:22:11;;;;;;;990.53;582.67;;;22.60;99.90;;;;;;5071673;28;20576;-83
2023/09/15 11:24:37;;;;;;;959.10;580.17;;;22.50;99.20;;;;;;5071007;28;20042;-83
2023/09/15 11:27:03;;;;;;;961.37;584.43;;;22.60;99.90;;;;;;5070873;28;20400;-83
2023/09/15 11:29:32;;;;;;;991.70;583.20;;;22.70;99.90;;;;;;5071302;28;20048;-85
2023/09/15 11:32:00;;;;;;;950.80;562.20;;;22.90;99.90;;;;;;5071448;28;20063;-85
2023/09/15 11:34:26;;;;;;;958.77;578.83;;;22.80;99.60;;;;;;5071901;28;20117;-85
2023/09/15 11:36:59;;;;;;;989.20;571.57;;;23.00;99.90;;;;;;5071244;28;20048;-85
2023/09/15 11:39:29;;;;;;;920.07;540.37;;;23.20;99.90;;;;;;5072709;28;20048;-85
2023/09/15 11:41:55;;;;;;;949.93;573.47;;;23.30;99.50;;;;;;5072859;28;20054;-84
2023/09/15 11:44:28;;;;;;;999.13;597.67;;;23.40;98.60;;;;;;5072955;28;20475;-87
2023/09/15 11:46:56;;;;;;;1000.13;599.33;;;23.40;98.60;;;;;;5076700;28;20427;-84
2023/09/15 11:49:23;;;;;;;969.67;593.80;;;23.30;98.30;;;;;;5074703;28;20045;-84
2023/09/15 11:51:50;;;;;;;973.33;597.07;;;23.10;97.50;;;;;;5076652;28;20109;-84
2023/09/15 11:54:16;;;;;;;1007.60;612.90;;;23.20;98.10;;;;;;5076713;28;20037;-85
2023/09/15 11:56:46;;;;;;;998.43;597.60;;;23.10;97.40;;;;;;5066953;28;20052;-84
2023/09/15 11:59:13;;;;;;;971.17;595.50;;;23.10;98.90;;;;;;5055464;28;20045;-87
2023/09/15 12:01:40;;;;;;;978.00;584.00;;;23.20;98.70;;;;;;5039043;28;20063;-85
2023/09/15 12:04:18;;;;;;;986.20;602.17;;;23.30;99.20;;;;;;5061237;28;20133;-85
2023/09/15 12:06:46;;;;;;;987.77;603.13;;;23.40;98.40;;;;;;5058745;28;20072;-86
2023/09/15 12:09:14;;;;;;;1027.10;630.00;;;23.50;98.90;;;;;;5074546;28;20098;-85
2023/09/15 12:11:41;;;;;;;986.53;600.47;;;23.10;97.30;;;;;;5059073;28;20152;-86
2023/09/15 12:14:13;;;;;;;1023.33;627.27;;;23.20;98.40;;;;;;5075519;28;20102;-86
2023/09/15 12:16:46;;;;;;;992.13;597.50;;;23.20;97.70;;;;;;5058773;28;20552;-86
2023/09/15 12:19:15;;;;;;;1029.40;626.40;;;23.20;99.20;;;;;;5058171;28;20045;-86
2023/09/15 12:21:59;;;;;;;1017.87;619.23;;;23.10;98.00;;;;;;5075239;28;20056;-85
2023/09/15 12:24:25;;;;;;;1016.00;621.87;;;23.10;99.20;;;;;;5074326;28;20052;-86
2023/09/15 12:26:54;;;;;;;990.03;593.63;;;23.30;98.80;;;;;;5066133;28;20048;-87
2023/09/15 12:29:22;;;;;;;1012.17;609.50;;;23.40;98.80;;;;;;5054945;28;20060;-88
2023/09/15 12:31:50;;;;;;;1046.17;596.63;;;23.50;99.40;;;;;;5069815;28;20128;-87
2023/09/15 12:34:29;;;;;;;1048.20;627.60;;;23.50;99.20;;;;;;5074725;28;20056;-85